| time (UTC) | temp F | wind direction | speed MPH | gust MPH | rain 1hr in | rain 24hr in | rain mn in | humidity % | barometer mb |
| 20260504035017 | 59 | 225 | 3.0 | 7.0 | 0.00 | 0.09 | 0.09 | 60 | 1006.0 |
| 20260504034017 | 59 | 203 | 2.0 | 5.0 | 0.00 | 0.09 | 0.09 | 59 | 1006.1 |
| 20260504033017 | 60 | 225 | 2.0 | 5.0 | 0.00 | 0.09 | 0.09 | 58 | 1006.4 |
| 20260504032017 | 60 | 225 | 2.0 | 5.0 | 0.00 | 0.09 | 0.09 | 57 | 1006.4 |
| 20260504031018 | 61 | 225 | 1.0 | 4.0 | 0.00 | 0.09 | 0.09 | 56 | 1006.5 |
| 20260504030037 | 61 | 225 | 3.0 | 7.0 | 0.00 | 0.09 | 0.09 | 55 | 1006.7 |
| 20260504025017 | 61 | 225 | 3.0 | 5.0 | 0.00 | 0.09 | 0.09 | 54 | 1006.7 |
| 20260504024037 | 62 | 225 | 2.0 | 6.0 | 0.00 | 0.09 | 0.09 | 54 | 1006.6 |
| 20260504023020 | 62 | 225 | 3.0 | 5.0 | 0.00 | 0.09 | 0.09 | 53 | 1006.6 |
| 20260504022017 | 62 | 225 | 3.0 | 6.0 | 0.00 | 0.09 | 0.09 | 53 | 1006.6 |
| 20260504021017 | 62 | 225 | 3.0 | 7.0 | 0.00 | 0.09 | 0.09 | 54 | 1006.5 |
| 20260504020017 | 62 | 225 | 3.0 | 6.0 | 0.00 | 0.09 | 0.09 | 53 | 1006.4 |
| 20260504015017 | 62 | 225 | 3.0 | 7.0 | 0.00 | 0.09 | 0.09 | 53 | 1006.3 |
| 20260504014017 | 63 | 225 | 3.0 | 6.0 | 0.00 | 0.09 | 0.09 | 53 | 1006.3 |
| 20260504013017 | 63 | 225 | 3.0 | 6.0 | 0.00 | 0.09 | 0.09 | 51 | 1006.1 |
| 20260504012017 | 64 | 225 | 4.0 | 7.0 | 0.00 | 0.09 | 0.09 | 51 | 1006.1 |
| 20260504011022 | 64 | 225 | 4.0 | 11.0 | 0.00 | 0.09 | 0.09 | 50 | 1006.1 |
| 20260504010017 | 64 | 225 | 3.0 | 9.0 | 0.00 | 0.09 | 0.09 | 49 | 1006.1 |
| 20260504005017 | 65 | 225 | 4.0 | 9.0 | 0.00 | 0.09 | 0.09 | 49 | 1006.1 |
| 20260504004057 | 66 | 225 | 4.0 | 9.0 | 0.00 | 0.09 | 0.09 | 48 | 1006.1 |
| 20260504003017 | 66 | 225 | 6.0 | 11.0 | 0.00 | 0.09 | 0.09 | 46 | 1006.0 |
| 20260504002017 | 67 | 225 | 5.0 | 10.0 | 0.00 | 0.09 | 0.09 | 45 | 1006.1 |
| 20260504001057 | 68 | 225 | 5.0 | 10.0 | 0.00 | 0.09 | 0.09 | 45 | 1006.2 |
| 20260504000017 | 68 | 225 | 4.0 | 10.0 | 0.00 | 0.09 | 0.09 | 44 | 1006.2 |
| 20260503235038 | 68 | 225 | 4.0 | 13.0 | 0.00 | 0.09 | 0.09 | 43 | 1006.1 |
| 20260503234017 | 69 | 225 | 6.0 | 12.0 | 0.00 | 0.09 | 0.09 | 42 | 1006.2 |
| 20260503233017 | 69 | 225 | 5.0 | 11.0 | 0.00 | 0.09 | 0.09 | 42 | 1006.3 |
| 20260503232017 | 69 | 225 | 6.0 | 16.0 | 0.00 | 0.09 | 0.09 | 42 | 1006.2 |
| 20260503231017 | 69 | 248 | 6.0 | 14.0 | 0.00 | 0.09 | 0.09 | 40 | 1006.3 |
| 20260503230017 | 69 | 225 | 4.0 | 9.0 | 0.00 | 0.09 | 0.09 | 41 | 1006.4 |
| 20260503225017 | 69 | 225 | 7.0 | 17.0 | 0.00 | 0.09 | 0.09 | 41 | 1006.5 |
| 20260503224158 | 69 | 225 | 6.0 | 13.0 | 0.00 | 0.09 | 0.09 | 42 | 1006.5 |
| 20260503223138 | 69 | 225 | 6.0 | 15.0 | 0.00 | 0.09 | 0.09 | 42 | 1006.6 |
| 20260503222037 | 69 | 225 | 8.0 | 16.0 | 0.00 | 0.09 | 0.09 | 41 | 1006.6 |
| 20260503221037 | 68 | 225 | 7.0 | 16.0 | 0.00 | 0.09 | 0.09 | 40 | 1006.7 |
| 20260503220017 | 68 | 225 | 6.0 | 14.0 | 0.00 | 0.09 | 0.09 | 42 | 1006.8 |
| 20260503215017 | 68 | 225 | 7.0 | 16.0 | 0.00 | 0.09 | 0.09 | 40 | 1006.7 |
| 20260503214017 | 68 | 225 | 5.0 | 14.0 | 0.00 | 0.09 | 0.09 | 40 | 1006.8 |
| 20260503213037 | 67 | 225 | 5.0 | 11.0 | 0.00 | 0.09 | 0.09 | 41 | 1007.0 |
| 20260503212017 | 67 | 203 | 9.0 | 20.0 | 0.00 | 0.09 | 0.09 | 39 | 1007.2 |
| 20260503211017 | 67 | 203 | 7.0 | 15.0 | 0.00 | 0.09 | 0.09 | 40 | 1007.3 |
| 20260503210017 | 67 | 225 | 7.0 | 13.0 | 0.00 | 0.09 | 0.09 | 41 | 1007.4 |
| 20260503205017 | 67 | 225 | 8.0 | 20.0 | 0.00 | 0.09 | 0.09 | 39 | 1007.8 |
| 20260503204058 | 66 | 225 | 7.0 | 15.0 | 0.00 | 0.09 | 0.09 | 42 | 1008.0 |
| 20260503203017 | 66 | 225 | 8.0 | 14.0 | 0.00 | 0.09 | 0.09 | 39 | 1008.3 |
| 20260503202037 | 66 | 225 | 7.0 | 16.0 | 0.00 | 0.09 | 0.09 | 40 | 1008.5 |
| 20260503201017 | 66 | 225 | 9.0 | 18.0 | 0.00 | 0.09 | 0.09 | 39 | 1008.5 |
| 20260503200017 | 65 | 225 | 8.0 | 15.0 | 0.00 | 0.09 | 0.09 | 42 | 1008.7 |
| 20260503195017 | 64 | 225 | 9.0 | 18.0 | 0.00 | 0.09 | 0.09 | 40 | 1008.8 |
| 20260503194017 | 65 | 180 | 7.0 | 20.0 | 0.00 | 0.09 | 0.09 | 41 | 1008.9 |
| 20260503193037 | 66 | 203 | 9.0 | 23.0 | 0.00 | 0.09 | 0.09 | 41 | 1009.0 |
| 20260503192017 | 64 | 225 | 10.0 | 18.0 | 0.00 | 0.09 | 0.09 | 44 | 1009.2 |
| 20260503191017 | 64 | 225 | 8.0 | 18.0 | 0.00 | 0.09 | 0.09 | 47 | 1009.2 |
| 20260503190017 | 62 | 225 | 9.0 | 16.0 | 0.00 | 0.09 | 0.09 | 50 | 1009.3 |
| 20260503185018 | 61 | 180 | 6.0 | 17.0 | 0.00 | 0.09 | 0.09 | 55 | 1009.4 |
| 20260503184017 | 60 | 225 | 8.0 | 15.0 | 0.00 | 0.09 | 0.09 | 57 | 1009.6 |
| 20260503183017 | 58 | 180 | 5.0 | 12.0 | 0.00 | 0.09 | 0.09 | 62 | 1009.8 |
| 20260503182017 | 57 | 180 | 6.0 | 11.0 | 0.00 | 0.09 | 0.09 | 65 | 1010.1 |
| 20260503181017 | 56 | 203 | 5.0 | 15.0 | 0.01 | 0.09 | 0.09 | 66 | 1010.3 |
| 20260503180017 | 54 | 180 | 5.0 | 11.0 | 0.01 | 0.09 | 0.09 | 73 | 1010.6 |
| 20260503175037 | 53 | 158 | 5.0 | 12.0 | 0.01 | 0.09 | 0.09 | 76 | 1010.9 |
| 20260503174017 | 51 | 135 | 4.0 | 12.0 | 0.01 | 0.09 | 0.09 | 80 | 1011.1 |
| 20260503173017 | 49 | 90 | 2.0 | 7.0 | 0.02 | 0.09 | 0.09 | 84 | 1011.2 |
| 20260503172018 | 49 | 113 | 2.0 | 7.0 | 0.02 | 0.09 | 0.09 | 84 | 1011.7 |
| 20260503171017 | 49 | 158 | 3.0 | 5.0 | 0.02 | 0.08 | 0.08 | 84 | 1012.2 |
| 20260503131016 | 50 | 225 | 3.0 | 8.0 | 0.00 | 0.00 | 0.00 | 59 | 1014.5 |
| 20260503081016 | 46 | 225 | 2.0 | 5.0 | 0.00 | 0.00 | 0.00 | 57 | 1015.4 |
| 20260503072016 | 46 | 225 | 1.0 | 2.0 | 0.00 | 0.00 | 0.00 | 55 | 1015.5 |
| 20260503071016 | 46 | 225 | 1.0 | 4.0 | 0.00 | 0.00 | 0.00 | 54 | 1015.5 |
| 20260503055016 | 48 | 225 | 3.0 | 8.0 | 0.00 | 0.00 | 0.00 | 51 | 1016.2 |
| 20260503054036 | 48 | 225 | 2.0 | 6.0 | 0.00 | 0.00 | 0.00 | 51 | 1016.2 |
| 20260503053016 | 48 | 225 | 3.0 | 5.0 | 0.00 | 0.00 | 0.00 | 51 | 1016.4 |
| 20260503052016 | 48 | 225 | 2.0 | 5.0 | 0.00 | 0.00 | 0.00 | 51 | 1016.4 |
| 20260503051036 | 48 | 248 | 2.0 | 5.0 | 0.00 | 0.00 | 0.00 | 51 | 1016.5 |
| 20260503050036 | 48 | 225 | 1.0 | 3.0 | 0.00 | 0.00 | 0.00 | 51 | 1016.4 |
| 20260503045037 | 47 | 225 | 2.0 | 5.0 | 0.00 | 0.00 | 0.00 | 51 | 1016.4 |
| 20260503044016 | 47 | 225 | 1.0 | 4.0 | 0.00 | 0.00 | 0.00 | 53 | 1016.5 |
| 20260503043016 | 46 | 225 | 1.0 | 3.0 | 0.00 | 0.00 | 0.00 | 55 | 1016.5 |
| 20260503042016 | 46 | 225 | 1.0 | 3.0 | 0.00 | 0.00 | 0.00 | 57 | 1016.5 |
| 20260503041016 | 45 | 0.0 | 0.0 | 0.00 | 0.00 | 0.00 | 59 | 1016.6 | |
| 20260503040017 | 46 | 0.0 | 0.0 | 0.00 | 0.00 | 0.00 | 57 | 1016.7 |